createdAt,value
2017-07-28T00:00:35.401Z,6.37
2017-07-28T00:03:01.341Z,6.63
2017-07-28T00:05:27.318Z,7.13
2017-07-28T00:07:54.008Z,7.00
2017-07-28T00:10:19.950Z,7.00
2017-07-28T00:12:46.663Z,6.67
2017-07-28T00:15:12.640Z,7.03
2017-07-28T00:17:38.614Z,7.27
2017-07-28T00:20:04.586Z,7.40
2017-07-28T00:22:30.559Z,6.50
2017-07-28T00:24:56.503Z,7.47
2017-07-28T00:27:22.523Z,6.90
2017-07-28T00:29:48.470Z,8.23
2017-07-28T00:32:14.409Z,5.50
2017-07-28T00:34:40.425Z,5.43
2017-07-28T00:37:06.378Z,4.90
2017-07-28T00:39:32.317Z,4.67
2017-07-28T00:41:58.301Z,4.83
2017-07-28T00:44:24.250Z,4.97
2017-07-28T00:46:50.193Z,6.00
2017-07-28T00:49:16.920Z,5.70
2017-07-28T00:51:42.853Z,5.67
2017-07-28T00:54:08.841Z,5.87
2017-07-28T00:56:35.526Z,5.53
2017-07-28T00:59:01.501Z,6.77
2017-07-28T01:01:27.468Z,5.97
2017-07-28T01:03:53.421Z,6.10
2017-07-28T01:06:19.401Z,6.20
2017-07-28T01:08:46.118Z,6.40
2017-07-28T01:11:12.849Z,6.80
2017-07-28T01:13:39.530Z,6.03
2017-07-28T01:16:05.470Z,6.07
2017-07-28T01:18:31.442Z,6.27
2017-07-28T01:20:57.447Z,6.23
2017-07-28T01:23:23.399Z,6.47
2017-07-28T01:25:49.341Z,5.93
2017-07-28T01:28:15.331Z,5.97
2017-07-28T01:30:41.273Z,5.40
2017-07-28T01:33:07.214Z,5.67
2017-07-28T01:35:33.199Z,6.47
2017-07-28T01:37:59.137Z,6.30
2017-07-28T01:40:25.089Z,5.20
2017-07-28T01:42:51.053Z,5.77
2017-07-28T01:45:16.989Z,5.90
2017-07-28T01:47:42.960Z,5.87
2017-07-28T01:50:08.885Z,5.90
2017-07-28T01:52:34.838Z,6.17
2017-07-28T01:55:01.578Z,8.13
2017-07-28T01:57:28.303Z,5.07
2017-07-28T01:59:55.030Z,5.60
2017-07-28T02:02:21.777Z,5.53
2017-07-28T02:04:47.718Z,6.53
2017-07-28T02:07:13.697Z,6.50
2017-07-28T02:09:39.726Z,6.27
2017-07-28T02:12:05.678Z,6.00
2017-07-28T02:14:32.370Z,6.67
2017-07-28T02:16:58.358Z,6.83
2017-07-28T02:19:24.321Z,6.30
2017-07-28T02:21:50.306Z,5.77
2017-07-28T02:24:16.253Z,6.23
2017-07-28T02:26:42.202Z,6.40
2017-07-28T02:29:08.174Z,7.23
2017-07-28T02:34:06.857Z,7.33
2017-07-28T02:36:32.805Z,6.90
2017-07-28T02:38:58.757Z,7.23
2017-07-28T02:41:25.474Z,6.30
2017-07-28T02:43:52.155Z,6.40
2017-07-28T02:46:18.137Z,6.60
2017-07-28T02:48:44.164Z,6.53
2017-07-28T02:51:10.122Z,5.60
2017-07-28T02:53:36.111Z,5.77
2017-07-28T02:56:02.057Z,8.00
2017-07-28T02:58:28.742Z,6.97
2017-07-28T03:00:54.714Z,5.87
2017-07-28T03:03:20.654Z,8.73
2017-07-28T03:05:46.639Z,7.90
2017-07-28T03:08:12.618Z,7.37
2017-07-28T03:10:38.613Z,6.57
2017-07-28T03:13:05.298Z,6.57
2017-07-28T03:15:31.238Z,5.90
2017-07-28T03:17:57.993Z,5.63
2017-07-28T03:20:23.982Z,5.20
2017-07-28T03:22:50.669Z,5.47
2017-07-28T03:25:16.618Z,5.63
2017-07-28T03:27:43.357Z,4.60
2017-07-28T03:30:09.311Z,5.57
2017-07-28T03:32:35.270Z,6.63
2017-07-28T03:35:01.250Z,5.20
2017-07-28T03:37:27.230Z,5.73
2017-07-28T03:39:53.206Z,6.03
2017-07-28T03:42:19.889Z,5.67
2017-07-28T03:44:45.878Z,5.27
2017-07-28T03:47:11.827Z,5.20
2017-07-28T03:49:37.814Z,5.80
2017-07-28T03:52:03.804Z,6.10
2017-07-28T03:54:29.745Z,5.90
2017-07-28T03:56:55.690Z,6.57
2017-07-28T03:59:22.422Z,5.83
2017-07-28T04:01:49.113Z,5.00
2017-07-28T04:04:15.088Z,6.47
2017-07-28T04:06:41.070Z,5.50
2017-07-28T04:09:07.121Z,6.10
2017-07-28T04:11:33.106Z,6.30
2017-07-28T04:13:59.054Z,4.83
2017-07-28T04:16:25.033Z,5.23
2017-07-28T04:18:51.013Z,6.00
2017-07-28T04:21:16.970Z,5.80
2017-07-28T04:23:42.933Z,5.63
2017-07-28T04:26:08.910Z,4.77
2017-07-28T04:28:34.858Z,5.50
2017-07-28T04:31:00.854Z,5.13
2017-07-28T04:33:26.810Z,5.10
2017-07-28T04:35:52.761Z,5.40
2017-07-28T04:38:18.762Z,6.23
2017-07-28T04:40:44.733Z,5.37
2017-07-28T04:43:10.678Z,5.27
2017-07-28T04:45:36.657Z,5.13
2017-07-28T04:48:02.654Z,5.07
2017-07-28T04:50:28.625Z,4.87
2017-07-28T04:52:54.742Z,4.83
2017-07-28T04:55:20.737Z,7.43
2017-07-28T04:57:46.690Z,4.50
2017-07-28T05:00:12.690Z,4.90
2017-07-28T05:02:39.378Z,5.20
2017-07-28T05:05:05.333Z,5.30
2017-07-28T05:07:31.310Z,4.20
2017-07-28T05:09:57.302Z,3.87
2017-07-28T05:12:23.249Z,4.70
2017-07-28T05:14:49.950Z,4.37
2017-07-28T05:17:15.934Z,4.60
2017-07-28T05:19:41.922Z,4.30
2017-07-28T05:22:07.866Z,4.90
2017-07-28T05:24:33.862Z,3.73
2017-07-28T05:26:59.810Z,3.90
2017-07-28T05:29:26.561Z,3.40
2017-07-28T05:31:52.609Z,4.40
2017-07-28T05:34:18.562Z,4.10
2017-07-28T05:36:44.574Z,3.43
2017-07-28T05:39:10.518Z,3.13
2017-07-28T05:41:36.599Z,3.73
2017-07-28T05:44:02.581Z,3.90
2017-07-28T05:46:29.305Z,4.43
2017-07-28T05:48:55.283Z,3.60
2017-07-28T05:51:21.273Z,4.50
2017-07-28T05:53:47.218Z,4.40
2017-07-28T05:56:13.294Z,3.93
2017-07-28T05:58:39.285Z,3.40
2017-07-28T06:01:05.281Z,3.87
2017-07-28T06:03:31.225Z,3.67
2017-07-28T06:05:57.213Z,3.67
2017-07-28T06:08:23.197Z,3.33
2017-07-28T06:10:49.941Z,4.00
2017-07-28T06:13:16.005Z,3.33
2017-07-28T06:15:41.949Z,3.30
2017-07-28T06:18:07.894Z,3.57
2017-07-28T06:20:33.913Z,3.40
2017-07-28T06:22:59.855Z,3.60
2017-07-28T06:25:26.601Z,4.00
2017-07-28T06:27:52.557Z,3.53
2017-07-28T06:30:18.548Z,4.10
2017-07-28T06:32:44.566Z,3.30
2017-07-28T06:35:10.514Z,4.10
2017-07-28T06:37:37.198Z,4.03
2017-07-28T06:40:03.186Z,4.30
2017-07-28T06:42:29.131Z,6.23
2017-07-28T06:44:55.077Z,5.03
2017-07-28T06:47:21.854Z,8.30
2017-07-28T06:49:47.825Z,6.03
2017-07-28T06:52:13.852Z,5.20
2017-07-28T06:54:39.833Z,4.43
2017-07-28T06:57:05.805Z,6.30
2017-07-28T06:59:31.862Z,5.13
2017-07-28T07:01:57.847Z,5.90
2017-07-28T07:04:24.529Z,5.77
2017-07-28T07:06:50.485Z,6.13
2017-07-28T07:09:17.211Z,6.63
2017-07-28T07:11:43.182Z,5.50
2017-07-28T07:14:09.171Z,8.67
2017-07-28T07:16:35.149Z,6.23
2017-07-28T07:19:01.105Z,7.13
2017-07-28T07:21:27.101Z,5.50
2017-07-28T07:23:53.049Z,7.37
2017-07-28T07:26:19.805Z,7.60
2017-07-28T07:28:45.794Z,7.70
2017-07-28T07:31:12.486Z,10.30
2017-07-28T07:33:38.431Z,7.57
2017-07-28T07:36:04.417Z,6.73
2017-07-28T07:38:30.362Z,8.50
2017-07-28T07:40:56.342Z,7.33
2017-07-28T07:43:22.290Z,10.83
2017-07-28T07:45:48.317Z,8.03
2017-07-28T07:48:14.273Z,7.57
2017-07-28T07:50:40.989Z,9.13
2017-07-28T07:53:06.966Z,8.20
2017-07-28T07:55:32.906Z,8.80
2017-07-28T07:57:58.882Z,9.73
2017-07-28T08:00:24.826Z,7.20
2017-07-28T08:02:51.542Z,10.80
2017-07-28T08:05:17.488Z,7.13
2017-07-28T08:07:43.490Z,7.10
2017-07-28T08:10:09.458Z,10.60
2017-07-28T08:12:35.410Z,7.47
2017-07-28T08:15:01.390Z,7.17
2017-07-28T08:17:27.366Z,11.67
2017-07-28T08:19:53.390Z,6.50
2017-07-28T08:22:19.405Z,10.60
2017-07-28T08:24:45.349Z,8.67
2017-07-28T08:27:11.317Z,9.73
2017-07-28T08:29:37.297Z,9.37
2017-07-28T08:32:03.243Z,9.53
2017-07-28T08:34:29.238Z,10.53
2017-07-28T08:36:55.177Z,9.57
2017-07-28T08:39:29.034Z,9.30
2017-07-28T08:41:54.977Z,6.27
2017-07-28T08:44:21.666Z,8.30
2017-07-28T08:46:47.657Z,7.97
2017-07-28T08:49:13.609Z,13.57
2017-07-28T08:51:40.346Z,9.33
2017-07-28T08:54:07.033Z,12.40
2017-07-28T08:56:32.977Z,12.47
2017-07-28T08:58:59.697Z,7.63
2017-07-28T09:01:26.378Z,8.53
2017-07-28T09:03:52.366Z,7.83
2017-07-28T09:06:18.314Z,9.80
2017-07-28T09:08:44.278Z,11.40
2017-07-28T09:11:10.282Z,7.80
2017-07-28T09:13:36.254Z,8.87
2017-07-28T09:16:02.957Z,8.17
2017-07-28T09:18:28.951Z,8.50
2017-07-28T09:20:54.889Z,8.77
2017-07-28T09:23:20.838Z,9.67
2017-07-28T09:25:46.818Z,8.63
2017-07-28T09:28:13.506Z,8.60
2017-07-28T09:30:39.516Z,8.73
2017-07-28T09:33:05.490Z,9.43
2017-07-28T09:35:31.438Z,8.07
2017-07-28T09:37:57.420Z,8.43
2017-07-28T09:40:23.358Z,10.67
2017-07-28T09:42:50.094Z,11.70
2017-07-28T09:45:16.038Z,7.83
2017-07-28T09:47:41.990Z,7.50
2017-07-28T09:50:08.009Z,8.40
2017-07-28T09:52:33.961Z,8.40
2017-07-28T09:54:59.909Z,8.63
2017-07-28T09:57:25.881Z,7.70
2017-07-28T09:59:51.853Z,8.60
2017-07-28T10:02:17.809Z,9.20
2017-07-28T10:04:43.802Z,7.47
2017-07-28T10:07:09.778Z,7.27
2017-07-28T10:09:36.525Z,9.10
2017-07-28T10:12:03.245Z,8.77
2017-07-28T10:14:29.930Z,7.47
2017-07-28T10:16:55.909Z,6.70
2017-07-28T10:19:21.854Z,7.87
2017-07-28T10:21:47.834Z,7.77
2017-07-28T10:24:13.856Z,9.23
2017-07-28T10:26:39.807Z,9.97
2017-07-28T10:29:05.781Z,6.67
2017-07-28T10:31:31.749Z,8.17
2017-07-28T10:33:57.693Z,5.67
2017-07-28T10:36:23.637Z,6.93
2017-07-28T10:38:49.661Z,8.23
2017-07-28T10:41:16.351Z,8.57
2017-07-28T10:43:42.305Z,8.73
2017-07-28T10:46:08.334Z,5.33
2017-07-28T10:48:34.278Z,6.17
2017-07-28T10:51:00.221Z,5.73
2017-07-28T10:53:26.949Z,5.97
2017-07-28T10:55:53.634Z,5.40
2017-07-28T10:58:19.605Z,5.17
2017-07-28T11:00:45.553Z,9.40
2017-07-28T11:03:11.577Z,8.97
2017-07-28T11:05:37.517Z,10.37
2017-07-28T11:08:03.483Z,7.80
2017-07-28T11:10:29.461Z,6.87
2017-07-28T11:12:55.426Z,9.23
2017-07-28T11:15:22.150Z,5.67
2017-07-28T11:17:48.885Z,7.03
2017-07-28T11:20:14.838Z,5.40
2017-07-28T11:22:40.858Z,8.20
2017-07-28T11:25:06.844Z,5.43
2017-07-28T11:27:32.781Z,7.03
2017-07-28T11:29:58.742Z,7.93
2017-07-28T11:32:24.729Z,5.23
2017-07-28T11:34:50.693Z,6.00
2017-07-28T11:37:16.645Z,5.10
2017-07-28T11:39:43.374Z,5.47
2017-07-28T11:42:09.361Z,5.83
2017-07-28T11:44:35.350Z,8.00
2017-07-28T11:47:01.293Z,6.60
2017-07-28T11:49:28.002Z,5.90
2017-07-28T11:51:53.990Z,6.17
2017-07-28T11:54:19.938Z,6.17
2017-07-28T11:56:46.617Z,12.73
2017-07-28T11:59:12.602Z,6.07
2017-07-28T12:01:38.549Z,7.87
2017-07-28T12:04:04.530Z,11.13
2017-07-28T12:06:30.481Z,5.93
2017-07-28T12:08:57.241Z,7.17
2017-07-28T12:11:23.198Z,9.53
2017-07-28T12:13:49.146Z,6.73
2017-07-28T12:16:15.134Z,8.70
2017-07-28T12:18:41.842Z,6.20
2017-07-28T12:21:07.837Z,9.33
2017-07-28T12:23:33.802Z,6.50
2017-07-28T12:25:59.754Z,6.23
2017-07-28T12:28:25.745Z,5.17
2017-07-28T12:30:51.690Z,8.83
2017-07-28T12:33:17.629Z,8.70
2017-07-28T12:35:43.618Z,6.57
2017-07-28T12:38:09.574Z,9.90
2017-07-28T12:40:35.553Z,11.73
2017-07-28T12:43:01.529Z,7.13
2017-07-28T12:45:27.478Z,6.60
2017-07-28T12:47:53.485Z,6.70
2017-07-28T12:50:19.430Z,6.17
2017-07-28T12:52:45.382Z,6.47
2017-07-28T12:55:12.118Z,9.30
2017-07-28T12:57:38.085Z,9.20
2017-07-28T13:00:04.074Z,9.30
2017-07-28T13:02:30.039Z,9.50
2017-07-28T13:04:56.773Z,6.60
2017-07-28T13:07:22.713Z,8.53
2017-07-28T13:09:48.662Z,6.77
2017-07-28T13:12:14.646Z,7.03
2017-07-28T13:14:42.490Z,6.20
2017-07-28T13:17:08.474Z,6.90
2017-07-28T13:19:34.423Z,8.60
2017-07-28T13:22:00.418Z,5.53
2017-07-28T13:24:26.406Z,8.10
2017-07-28T13:26:52.346Z,5.00
2017-07-28T13:29:18.341Z,5.57
2017-07-28T13:31:44.302Z,9.77
2017-07-28T13:34:10.338Z,6.33
2017-07-28T13:36:36.330Z,6.93
2017-07-28T13:39:02.274Z,6.47
2017-07-28T13:41:28.221Z,6.93
2017-07-28T13:43:54.967Z,5.93
2017-07-28T13:46:27.133Z,6.90
2017-07-28T13:48:53.101Z,5.13
2017-07-28T13:51:19.830Z,5.20
2017-07-28T13:53:46.517Z,5.40
2017-07-28T13:56:12.528Z,8.63
2017-07-28T13:58:38.482Z,4.77
2017-07-28T14:01:05.171Z,4.50
2017-07-28T14:03:31.149Z,6.00
2017-07-28T14:05:57.106Z,4.90
2017-07-28T14:08:23.097Z,4.60
2017-07-28T14:10:49.068Z,5.93
2017-07-28T14:13:15.041Z,5.10
2017-07-28T14:15:41.770Z,3.70
2017-07-28T14:18:07.754Z,3.40
2017-07-28T14:20:33.751Z,5.00
2017-07-28T14:22:59.763Z,4.00
2017-07-28T14:25:25.705Z,5.40
2017-07-28T14:27:52.442Z,4.03
2017-07-28T14:30:18.399Z,9.70
2017-07-28T14:32:44.357Z,4.20
2017-07-28T14:35:10.362Z,3.50
2017-07-28T14:37:37.089Z,5.47
2017-07-28T14:40:03.782Z,3.73
2017-07-28T14:42:29.765Z,3.57
2017-07-28T14:44:55.754Z,3.37
2017-07-28T14:47:21.737Z,3.43
2017-07-28T14:49:47.683Z,4.80
2017-07-28T14:52:13.941Z,3.50
2017-07-28T14:54:39.905Z,3.70
2017-07-28T14:57:05.862Z,4.00
2017-07-28T14:59:31.854Z,3.63
2017-07-28T15:01:57.805Z,4.70
2017-07-28T15:04:23.757Z,3.70
2017-07-28T15:06:49.742Z,3.57
2017-07-28T15:09:15.730Z,4.83
2017-07-28T15:11:41.700Z,4.67
2017-07-28T15:14:07.690Z,3.33
2017-07-28T15:16:33.633Z,2.53
2017-07-28T15:19:00.353Z,2.87
2017-07-28T15:21:26.348Z,2.97
2017-07-28T15:23:52.330Z,2.47
2017-07-28T15:26:18.273Z,2.73
2017-07-28T15:28:44.339Z,4.90
2017-07-28T15:31:10.297Z,5.20
2017-07-28T15:33:36.990Z,3.07
2017-07-28T15:36:02.989Z,6.17
2017-07-28T15:38:28.938Z,2.30
2017-07-28T15:40:54.885Z,3.80
2017-07-28T15:43:20.865Z,2.13
2017-07-28T15:45:47.549Z,2.13
2017-07-28T15:48:13.546Z,2.23
2017-07-28T15:50:39.521Z,2.50
2017-07-28T15:53:05.509Z,4.73
2017-07-28T15:55:32.212Z,3.90
2017-07-28T15:57:58.157Z,4.40
2017-07-28T16:00:24.885Z,1.73
2017-07-28T16:02:50.833Z,2.37
2017-07-28T16:05:16.778Z,3.30
2017-07-28T16:07:42.772Z,6.70
2017-07-28T16:10:08.741Z,5.07
2017-07-28T16:12:34.721Z,3.20
2017-07-28T16:15:01.450Z,8.80
2017-07-28T16:17:28.137Z,2.47
2017-07-28T16:19:54.111Z,3.10
2017-07-28T16:22:20.054Z,1.73
2017-07-28T16:24:46.055Z,2.00
2017-07-28T16:27:12.013Z,1.80
2017-07-28T16:29:37.986Z,9.20
2017-07-28T16:32:03.985Z,7.13
2017-07-28T16:34:29.930Z,4.23
2017-07-28T16:36:56.618Z,8.00
2017-07-28T16:39:22.609Z,2.87
2017-07-28T16:41:48.554Z,2.87
2017-07-28T16:44:14.507Z,3.00
2017-07-28T16:46:40.539Z,3.53
2017-07-28T16:49:06.485Z,3.90
2017-07-28T16:51:33.178Z,3.43
2017-07-28T16:53:59.161Z,3.17
2017-07-28T16:56:25.142Z,4.50
2017-07-28T16:58:51.082Z,4.50
2017-07-28T17:01:17.074Z,4.37
2017-07-28T17:03:43.024Z,2.03
2017-07-28T17:06:08.974Z,4.07
2017-07-28T17:08:34.954Z,3.00
2017-07-28T17:11:00.905Z,2.87
2017-07-28T17:13:26.881Z,2.43
2017-07-28T17:15:53.590Z,2.27
2017-07-28T17:18:19.561Z,3.23
2017-07-28T17:20:45.515Z,3.03
2017-07-28T17:23:11.501Z,2.37
2017-07-28T17:25:37.485Z,5.10
2017-07-28T17:28:03.502Z,2.53
2017-07-28T17:30:29.453Z,2.67
2017-07-28T17:32:55.437Z,3.17
2017-07-28T17:35:21.393Z,2.50
2017-07-28T17:37:47.362Z,3.93
2017-07-28T17:40:13.358Z,2.33
2017-07-28T17:42:39.334Z,2.73
2017-07-28T17:45:05.389Z,3.50
2017-07-28T17:47:31.374Z,4.50
2017-07-28T17:49:57.398Z,3.40
2017-07-28T17:52:23.349Z,3.77
2017-07-28T17:54:50.036Z,5.97
2017-07-28T17:57:16.041Z,5.60
2017-07-28T17:59:42.001Z,2.37
2017-07-28T18:02:07.950Z,4.20
2017-07-28T18:04:33.994Z,2.63
2017-07-28T18:06:59.945Z,3.27
2017-07-28T18:09:25.890Z,3.47
2017-07-28T18:11:51.882Z,7.30
2017-07-28T18:14:17.822Z,4.53
2017-07-28T18:16:43.806Z,3.03
2017-07-28T18:19:09.826Z,5.83
2017-07-28T18:21:35.772Z,3.30
2017-07-28T18:24:02.473Z,3.70
2017-07-28T18:26:28.485Z,2.83
2017-07-28T18:29:01.526Z,2.60
2017-07-28T18:31:27.522Z,3.00
2017-07-28T18:33:53.474Z,3.27
2017-07-28T18:36:20.171Z,3.50
2017-07-28T18:38:46.159Z,4.57
2017-07-28T18:41:12.133Z,3.40
2017-07-28T18:43:38.118Z,3.83
2017-07-28T18:46:04.093Z,3.70
2017-07-28T18:48:30.070Z,2.30
2017-07-28T18:50:56.026Z,3.77
2017-07-28T18:53:22.010Z,3.47
2017-07-28T18:55:47.970Z,3.23
2017-07-28T18:58:14.705Z,7.13
2017-07-28T19:00:41.456Z,4.43
2017-07-28T19:03:07.495Z,2.90
2017-07-28T19:05:33.487Z,5.57
2017-07-28T19:07:59.473Z,4.07
2017-07-28T19:10:25.450Z,4.70
2017-07-28T19:12:51.458Z,3.37
2017-07-28T19:15:17.410Z,4.10
2017-07-28T19:17:43.754Z,5.07
2017-07-28T19:20:09.781Z,4.00
2017-07-28T19:22:35.725Z,4.43
2017-07-28T19:25:01.794Z,3.00
2017-07-28T19:27:27.779Z,3.60
2017-07-28T19:29:53.725Z,3.03
2017-07-28T19:32:19.709Z,4.90
2017-07-28T19:34:45.719Z,4.37
2017-07-28T19:37:11.699Z,6.07
2017-07-28T19:39:37.692Z,3.47
2017-07-28T19:42:03.667Z,3.60
2017-07-28T19:44:29.690Z,4.90
2017-07-28T19:46:56.382Z,4.50
2017-07-28T19:49:22.334Z,3.87
2017-07-28T19:51:48.398Z,5.23
2017-07-28T19:54:14.379Z,3.40
2017-07-28T19:56:40.421Z,4.37
2017-07-28T19:59:06.452Z,4.63
2017-07-28T20:01:32.406Z,5.00
2017-07-28T20:03:58.397Z,5.33
2017-07-28T20:06:24.340Z,5.90
2017-07-28T20:08:50.286Z,4.97
2017-07-28T20:11:16.300Z,6.70
2017-07-28T20:13:43.061Z,13.37
2017-07-28T20:16:09.137Z,5.17
2017-07-28T20:18:35.846Z,6.67
2017-07-28T20:21:01.878Z,4.20
2017-07-28T20:23:27.850Z,5.53
2017-07-28T20:25:53.793Z,5.30
2017-07-28T20:28:19.801Z,7.97
2017-07-28T20:30:45.742Z,7.40
2017-07-28T20:33:11.691Z,6.23
2017-07-28T20:35:37.674Z,5.80
2017-07-28T20:38:04.374Z,7.60
2017-07-28T20:40:31.091Z,6.10
2017-07-28T20:42:57.782Z,7.90
2017-07-28T20:45:23.778Z,6.83
2017-07-28T20:47:49.722Z,10.17
2017-07-28T20:50:16.415Z,6.33
2017-07-28T20:52:42.397Z,6.17
2017-07-28T20:55:08.362Z,5.57
2017-07-28T20:57:34.305Z,5.53
2017-07-28T21:00:00.277Z,6.53
2017-07-28T21:02:26.225Z,5.77
2017-07-28T21:04:52.218Z,8.93
2017-07-28T21:07:18.174Z,4.73
2017-07-28T21:09:44.126Z,5.00
2017-07-28T21:12:10.117Z,4.40
2017-07-28T21:14:36.062Z,6.17
2017-07-28T21:17:02.037Z,6.27
2017-07-28T21:19:35.705Z,5.87
2017-07-28T21:22:01.686Z,6.70
2017-07-28T21:24:27.634Z,5.90
2017-07-28T21:26:53.641Z,5.10
2017-07-28T21:29:19.602Z,4.90
2017-07-28T21:31:45.605Z,4.30
2017-07-28T21:34:11.601Z,7.63
2017-07-28T21:36:37.542Z,6.03
2017-07-28T21:39:03.478Z,4.40
2017-07-28T21:41:29.470Z,4.93
2017-07-28T21:43:55.418Z,4.93
2017-07-28T21:46:21.397Z,7.90
2017-07-28T21:48:47.422Z,5.40
2017-07-28T21:51:13.385Z,5.40
2017-07-28T21:53:39.338Z,4.43
2017-07-28T21:56:05.330Z,5.00
2017-07-28T21:58:31.281Z,10.27
2017-07-28T22:00:57.969Z,5.43
2017-07-28T22:03:23.970Z,4.90
2017-07-28T22:05:49.962Z,7.47
2017-07-28T22:08:15.934Z,6.33
2017-07-28T22:10:41.905Z,5.73
2017-07-28T22:13:07.841Z,5.80
2017-07-28T22:15:34.565Z,8.27
2017-07-28T22:18:01.306Z,5.13
2017-07-28T22:20:28.010Z,5.70
2017-07-28T22:22:53.998Z,6.77
2017-07-28T22:25:19.989Z,10.90
2017-07-28T22:27:45.950Z,4.83
2017-07-28T22:30:11.899Z,4.77
2017-07-28T22:32:37.885Z,6.70
2017-07-28T22:35:03.889Z,6.10
2017-07-28T22:37:29.834Z,8.13
2017-07-28T22:39:55.781Z,5.53
2017-07-28T22:42:21.786Z,5.30
2017-07-28T22:44:47.754Z,5.03
2017-07-28T22:47:13.701Z,4.60
2017-07-28T22:49:39.685Z,5.90
2017-07-28T22:52:05.638Z,6.30
2017-07-28T22:54:31.601Z,4.20
2017-07-28T22:56:57.594Z,8.60
2017-07-28T22:59:23.546Z,4.50
2017-07-28T23:01:49.509Z,4.57
2017-07-28T23:04:15.490Z,6.57
2017-07-28T23:06:41.438Z,8.67
2017-07-28T23:09:07.417Z,5.10
2017-07-28T23:11:34.106Z,4.70
2017-07-28T23:14:00.119Z,5.60
2017-07-28T23:16:26.095Z,4.60
2017-07-28T23:18:52.042Z,6.07
2017-07-28T23:21:18.054Z,4.33
2017-07-28T23:23:44.028Z,3.63
2017-07-28T23:26:09.984Z,6.50
2017-07-28T23:28:35.961Z,4.53
2017-07-28T23:31:01.946Z,5.97
2017-07-28T23:33:27.925Z,4.30
2017-07-28T23:35:54.630Z,5.73
2017-07-28T23:38:20.611Z,5.03
2017-07-28T23:40:46.617Z,4.60
2017-07-28T23:43:12.565Z,9.10
2017-07-28T23:45:38.513Z,7.53
2017-07-28T23:48:04.526Z,5.00
2017-07-28T23:50:30.489Z,7.73
2017-07-28T23:52:56.476Z,7.80
2017-07-28T23:55:23.170Z,5.10
2017-07-28T23:57:49.135Z,5.13
